Time;durP1;ratioP1;P1;durP2;ratioP2;P2;SDS_P1;SDS_P2;PMS_P1;PMS_P2;Temp;Humidity;BMP_temperature;BMP_pressure;BME280_temperature;BME280_humidity;BME280_pressure;Samples;Min_cycle;Max_cycle;Signal;HPM_P1;HPM_P2
2023/03/29 00:06:31;;;;;;;7.37;4.30;;;8.20;60.20;;;;;;21168632;28;20573;-77
2023/03/29 00:16:33;;;;;;;11.10;5.23;;;8.10;60.20;;;;;;21168579;28;20272;-78
2023/03/29 00:26:35;;;;;;;7.97;4.47;;;8.20;60.80;;;;;;21168350;28;20245;-77
2023/03/29 00:36:39;;;;;;;7.37;3.80;;;8.20;61.30;;;;;;21166859;28;20271;-77
2023/03/29 00:46:41;;;;;;;6.33;3.60;;;8.20;61.70;;;;;;21166197;28;20304;-77
2023/03/29 00:56:45;;;;;;;6.97;3.40;;;8.30;61.90;;;;;;21165904;28;20259;-78
2023/03/29 01:07:08;;;;;;;5.27;2.60;;;8.40;62.50;;;;;;21165027;28;20205;-77
2023/03/29 01:17:09;;;;;;;3.80;2.40;;;8.40;63.70;;;;;;21163561;28;20225;-77
2023/03/29 01:27:43;;;;;;;4.17;2.30;;;8.50;64.60;;;;;;21163961;28;20209;-76
2023/03/29 01:37:55;;;;;;;6.33;2.73;;;8.50;65.30;;;;;;21162738;28;20240;-76
2023/03/29 01:48:13;;;;;;;6.47;2.60;;;8.40;66.20;;;;;;21162776;28;20208;-76
2023/03/29 01:58:16;;;;;;;7.23;2.73;;;8.40;66.70;;;;;;21162738;28;20242;-77
2023/03/29 02:08:21;;;;;;;3.93;2.97;;;8.40;67.60;;;;;;21162262;28;20615;-78
2023/03/29 02:18:23;;;;;;;4.00;2.80;;;8.30;68.20;;;;;;21161877;28;20236;-77
2023/03/29 02:28:26;;;;;;;3.90;3.10;;;8.40;69.10;;;;;;21171040;28;20208;-78
2023/03/29 02:38:28;;;;;;;10.17;2.97;;;8.30;69.80;;;;;;21176581;28;20626;-78
2023/03/29 02:48:31;;;;;;;5.03;2.37;;;8.30;70.90;;;;;;21175747;28;20721;-76
2023/03/29 02:58:32;;;;;;;2.87;2.00;;;8.30;72.00;;;;;;21175056;28;20736;-77
2023/03/29 03:08:34;;;;;;;3.07;2.40;;;8.20;73.60;;;;;;21174183;28;20205;-76
2023/03/29 03:18:36;;;;;;;4.20;2.50;;;8.20;75.20;;;;;;21173404;28;20233;-77
2023/03/29 03:31:06;;;;;;;2.53;2.23;;;8.20;76.80;;;;;;21237544;27;20566;-77
2023/03/29 03:41:08;;;;;;;4.83;2.63;;;8.20;77.90;;;;;;21237267;28;20652;-77
2023/03/29 03:51:10;;;;;;;4.03;2.40;;;8.20;79.00;;;;;;21235801;28;20201;-78
2023/03/29 04:12:10;;;;;;;3.83;2.50;;;8.10;81.10;;;;;;21068817;28;20491;-78
2023/03/29 04:22:12;;;;;;;3.00;2.53;;;;;;;;;;21067516;28;20580;-78
2023/03/29 04:32:13;;;;;;;6.47;2.73;;;8.00;82.80;;;;;;21066730;28;20744;-76
2023/03/29 04:42:15;;;;;;;4.20;2.80;;;8.10;83.30;;;;;;21066086;28;20207;-77
2023/03/29 04:52:18;;;;;;;3.90;3.00;;;;;;;;;;21065159;28;20210;-76
2023/03/29 05:02:20;;;;;;;5.77;3.10;;;8.20;83.90;;;;;;21064290;28;20199;-77
2023/03/29 05:12:22;;;;;;;7.67;2.90;;;8.10;83.80;;;;;;21088176;28;20203;-78
2023/03/29 05:22:24;;;;;;;8.93;3.10;;;;;;;;;;21047700;28;20209;-76
2023/03/29 05:32:27;;;;;;;8.53;3.70;;;;;;;;;;21050846;28;20206;-77
2023/03/29 05:42:29;;;;;;;5.50;3.30;;;;;;;;;;21025135;28;20209;-77
2023/03/29 05:52:31;;;;;;;10.63;3.77;;;;;;;;;;21018447;28;20668;-77
2023/03/29 06:02:33;;;;;;;5.83;3.50;;;7.90;85.90;;;;;;21000213;28;20245;-77
2023/03/29 06:12:36;;;;;;;5.83;3.30;;;8.10;86.00;;;;;;21002250;28;20578;-78
2023/03/29 06:22:39;;;;;;;8.07;3.20;;;8.30;86.20;;;;;;21000947;28;20226;-78
2023/03/29 06:32:41;;;;;;;4.40;2.97;;;8.50;85.90;;;;;;20999415;28;20214;-78
2023/03/29 06:49:54;;;;;;;5.87;3.53;;;8.70;85.60;;;;;;21067039;27;21171;-78
2023/03/29 06:59:56;;;;;;;11.00;3.27;;;8.90;85.70;;;;;;21066836;28;20252;-78
2023/03/29 07:10:00;;;;;;;5.00;3.30;;;9.40;85.50;;;;;;21065872;28;20207;-77
2023/03/29 07:22:47;;;;;;;4.73;3.57;;;9.70;84.80;;;;;;21066977;27;20556;-77
2023/03/29 07:32:51;;;;;;;5.20;3.80;;;10.00;83.10;;;;;;21066273;28;20212;-76
2023/03/29 07:42:55;;;;;;;4.97;3.50;;;10.30;82.60;;;;;;21066008;28;20213;-78
2023/03/29 07:52:59;;;;;;;13.90;3.43;;;;;;;;;;21064643;28;20210;-78
2023/03/29 08:03:02;;;;;;;7.33;2.70;;;10.70;80.00;;;;;;21064097;28;20232;-78
2023/03/29 08:13:07;;;;;;;6.93;2.80;;;10.80;78.00;;;;;;21063326;28;20271;-78
2023/03/29 08:23:10;;;;;;;3.20;2.43;;;;;;;;;;21062740;28;20201;-79
2023/03/29 08:33:11;;;;;;;6.43;2.70;;;10.80;75.80;;;;;;21011050;28;20231;-77
2023/03/29 08:43:30;;;;;;;3.20;2.37;;;10.80;75.50;;;;;;21004830;28;20300;-78
2023/03/29 08:53:40;;;;;;;4.33;2.50;;;11.10;75.20;;;;;;21004224;28;20229;-78
2023/03/29 09:03:48;;;;;;;3.13;2.33;;;;;;;;;;21003277;28;20252;-79
2023/03/29 09:14:25;;;;;;;3.67;2.53;;;11.80;73.20;;;;;;21002360;28;20235;-79
2023/03/29 09:24:33;;;;;;;4.77;2.53;;;11.90;71.80;;;;;;21001928;28;20268;-79
2023/03/29 09:38:23;;;;;;;4.93;2.30;;;12.30;70.30;;;;;;21065772;27;20527;-78
2023/03/29 09:48:26;;;;;;;5.40;2.20;;;;;;;;;;21065623;28;20215;-77
2023/03/29 09:58:31;;;;;;;8.10;2.40;;;12.90;68.70;;;;;;21065807;28;20396;-78
2023/03/29 10:09:00;;;;;;;4.17;2.20;;;13.20;67.70;;;;;;21064872;28;20268;-80
2023/03/29 10:19:29;;;;;;;6.07;2.30;;;13.60;67.40;;;;;;21063025;28;20677;-79
2023/03/29 10:29:37;;;;;;;5.50;2.20;;;13.80;66.60;;;;;;21063154;28;20240;-78
2023/03/29 10:39:39;;;;;;;3.47;2.17;;;14.10;66.00;;;;;;21062027;28;20217;-78
2023/03/29 10:49:45;;;;;;;3.00;2.17;;;14.30;65.60;;;;;;21005701;28;20284;-78
2023/03/29 11:00:05;;;;;;;5.13;2.10;;;14.50;64.90;;;;;;21004947;28;20572;-77
2023/03/29 11:10:10;;;;;;;3.10;1.97;;;14.70;64.70;;;;;;21003079;28;20263;-78
2023/03/29 11:20:25;;;;;;;4.50;2.20;;;15.20;64.00;;;;;;21003067;28;20635;-79
2023/03/29 11:30:50;;;;;;;6.07;2.10;;;15.50;63.60;;;;;;21002823;28;20639;-79
2023/03/29 11:41:01;;;;;;;13.13;3.17;;;15.60;62.60;;;;;;21001695;28;20203;-78
2023/03/29 11:51:19;;;;;;;4.97;1.80;;;15.70;61.50;;;;;;21000178;28;20764;-77
2023/03/29 12:01:34;;;;;;;10.17;5.73;;;15.70;61.30;;;;;;20997753;28;20677;-77
2023/03/29 12:20:27;;;;;;;4.97;1.87;;;15.90;60.60;;;;;;21149707;27;20557;-74
2023/03/29 12:30:41;;;;;;;5.00;2.07;;;15.90;61.00;;;;;;21149879;28;20599;-74
2023/03/29 12:40:59;;;;;;;4.50;2.00;;;16.10;61.00;;;;;;21067175;27;20664;-74
2023/03/29 12:51:10;;;;;;;3.10;2.07;;;16.70;60.70;;;;;;21052044;28;20270;-74
2023/03/29 13:01:22;;;;;;;2.73;2.10;;;16.60;61.10;;;;;;21046078;28;20266;-80
2023/03/29 13:11:30;;;;;;;5.57;1.90;;;16.30;62.00;;;;;;21066336;28;20275;-72
2023/03/29 13:22:05;;;;;;;6.30;1.83;;;16.20;63.20;;;;;;21081914;28;20281;-74
2023/03/29 13:32:25;;;;;;;3.67;1.83;;;15.90;64.30;;;;;;21068249;28;20325;-72
2023/03/29 13:42:34;;;;;;;3.83;1.90;;;15.70;65.40;;;;;;21057116;28;20236;-72
2023/03/29 13:52:40;;;;;;;7.83;4.53;;;16.00;65.70;;;;;;21030451;28;20231;-72
2023/03/29 14:02:54;;;;;;;10.43;2.27;;;;;;;;;;21042960;28;20253;-73
2023/03/29 14:12:59;;;;;;;5.10;2.30;;;16.30;63.60;;;;;;20953624;28;20232;-70
2023/03/29 14:23:11;;;;;;;3.40;2.23;;;17.30;62.00;;;;;;20919695;28;20217;-71
2023/03/29 14:33:27;;;;;;;3.93;1.90;;;17.30;60.50;;;;;;20919429;28;20244;-72
2023/03/29 14:43:30;;;;;;;6.63;2.80;;;17.90;59.90;;;;;;20919613;28;20203;-71
2023/03/29 14:53:35;;;;;;;4.83;2.50;;;18.60;57.70;;;;;;20952073;28;20231;-72
2023/03/29 15:03:52;;;;;;;4.40;2.40;;;18.40;57.30;;;;;;20972002;28;20217;-71
2023/03/29 15:14:13;;;;;;;2.73;2.07;;;18.00;57.20;;;;;;20952970;28;20231;-71
2023/03/29 15:24:29;;;;;;;2.63;2.30;;;17.70;57.60;;;;;;20949980;28;20214;-72
2023/03/29 15:34:32;;;;;;;6.90;3.80;;;17.40;57.80;;;;;;20952781;28;20238;-71
2023/03/29 15:44:37;;;;;;;10.13;7.20;;;17.00;58.30;;;;;;20949990;28;20218;-74
2023/03/29 15:54:39;;;;;;;5.10;2.40;;;16.90;58.70;;;;;;20950182;28;20233;-76
2023/03/29 16:08:33;;;;;;;3.00;2.20;;;16.50;59.50;;;;;;20945060;28;20564;-73
2023/03/29 16:18:35;;;;;;;3.30;2.20;;;16.30;59.90;;;;;;20862372;28;20265;-75
2023/03/29 16:28:37;;;;;;;4.50;2.20;;;16.40;60.60;;;;;;20853727;28;20599;-78
2023/03/29 16:38:39;;;;;;;7.03;2.60;;;16.10;60.60;;;;;;20841748;28;20207;-77
2023/03/29 16:48:41;;;;;;;3.57;2.77;;;16.10;60.70;;;;;;20858297;28;20211;-73
2023/03/29 16:58:43;;;;;;;3.03;2.30;;;16.00;61.30;;;;;;20854494;28;20207;-72
2023/03/29 17:08:45;;;;;;;5.53;2.40;;;15.90;61.60;;;;;;20905476;28;20209;-80
2023/03/29 17:18:48;;;;;;;4.63;2.43;;;15.70;62.30;;;;;;20840935;28;20235;-75
2023/03/29 17:28:50;;;;;;;3.80;2.87;;;15.60;62.90;;;;;;20865682;28;20663;-76
2023/03/29 17:38:53;;;;;;;4.10;2.90;;;15.40;63.90;;;;;;20874801;28;20196;-74
2023/03/29 17:48:57;;;;;;;3.80;2.93;;;15.40;64.50;;;;;;20879619;28;20245;-73
2023/03/29 17:58:59;;;;;;;5.07;2.67;;;15.30;64.90;;;;;;20837622;28;20249;-70
2023/03/29 18:09:02;;;;;;;4.20;2.17;;;15.20;65.60;;;;;;20835120;28;20695;-71
2023/03/29 18:19:03;;;;;;;8.00;4.70;;;15.20;66.60;;;;;;20835172;28;20232;-72
2023/03/29 18:29:06;;;;;;;6.47;3.07;;;15.10;67.30;;;;;;20834854;28;20248;-75
2023/03/29 18:39:12;;;;;;;5.63;2.60;;;15.10;68.40;;;;;;20834671;28;20224;-75
2023/03/29 18:49:14;;;;;;;4.20;2.03;;;14.90;70.10;;;;;;20833597;28;20260;-73
2023/03/29 19:03:55;;;;;;;5.07;2.00;;;14.80;71.50;;;;;;20984339;28;21099;-72
2023/03/29 19:13:57;;;;;;;3.90;2.50;;;14.70;72.70;;;;;;20982174;28;20203;-72
2023/03/29 19:24:02;;;;;;;8.37;2.07;;;14.70;73.50;;;;;;20982829;28;20214;-71
2023/03/29 19:34:05;;;;;;;3.77;2.30;;;14.60;74.00;;;;;;20981323;28;20240;-74
2023/03/29 19:45:08;;;;;;;10.20;2.60;;;14.50;74.30;;;;;;21194528;27;1251232;-74
2023/03/29 19:55:10;;;;;;;3.30;2.20;;;14.50;74.70;;;;;;21151408;28;20213;-74
2023/03/29 20:05:12;;;;;;;6.87;2.40;;;14.50;74.90;;;;;;21150326;28;20263;-72
2023/03/29 20:15:14;;;;;;;3.90;2.30;;;14.40;75.00;;;;;;21149465;28;20211;-72
2023/03/29 20:25:16;;;;;;;6.57;2.90;;;14.30;75.40;;;;;;21147327;28;20206;-72
2023/03/29 20:35:18;;;;;;;7.53;3.03;;;14.20;76.00;;;;;;21147556;28;20205;-76
2023/03/29 20:45:19;;;;;;;5.93;4.07;;;14.10;76.90;;;;;;21147008;28;20238;-72
2023/03/29 20:55:22;;;;;;;13.03;6.43;;;14.00;78.00;;;;;;21097105;28;20206;-73
2023/03/29 21:05:30;;;;;;;9.53;5.63;;;14.00;78.30;;;;;;21089736;28;20210;-74
2023/03/29 21:15:32;;;;;;;10.47;4.60;;;13.80;79.40;;;;;;21088917;28;20236;-73
2023/03/29 21:25:34;;;;;;;6.90;4.00;;;13.70;80.30;;;;;;21088448;28;20259;-72
2023/03/29 21:35:36;;;;;;;11.07;4.00;;;13.70;80.60;;;;;;21087146;28;20224;-73
2023/03/29 21:45:37;;;;;;;6.07;3.57;;;13.60;81.70;;;;;;21068740;28;20211;-73
2023/03/29 21:55:39;;;;;;;6.93;3.83;;;13.50;82.20;;;;;;21086181;28;20238;-73
2023/03/29 22:05:42;;;;;;;7.10;3.53;;;13.50;82.50;;;;;;21084168;28;20590;-73
2023/03/29 22:15:44;;;;;;;9.00;3.10;;;13.40;83.40;;;;;;21086775;28;20227;-76
2023/03/29 22:25:46;;;;;;;6.00;3.10;;;13.30;84.00;;;;;;21084056;28;20209;-76
2023/03/29 22:35:47;;;;;;;6.40;3.60;;;13.10;84.60;;;;;;21082495;28;20706;-76
2023/03/29 22:45:49;;;;;;;8.13;3.40;;;13.10;85.30;;;;;;21082137;28;20236;-76
2023/03/29 22:55:51;;;;;;;6.17;3.17;;;13.00;86.20;;;;;;21081539;28;20230;-76
2023/03/29 23:05:55;;;;;;;6.50;3.33;;;12.80;86.90;;;;;;21080510;28;20206;-76
2023/03/29 23:15:58;;;;;;;9.67;4.03;;;12.70;87.70;;;;;;21079579;28;20226;-73
2023/03/29 23:26:01;;;;;;;5.73;3.63;;;12.70;88.10;;;;;;21079657;28;20219;-74
2023/03/29 23:36:07;;;;;;;7.20;3.50;;;12.50;89.30;;;;;;21078731;28;20324;-73
2023/03/29 23:46:12;;;;;;;6.77;4.07;;;12.40;89.70;;;;;;21078566;28;20213;-73
2023/03/29 23:56:14;;;;;;;10.97;4.10;;;12.40;90.00;;;;;;21078593;28;20320;-74
